Nuno Marques

Chefscout - Oliveirense
3 Dez 2028
Sonntag
Verarbeitung

Persönlichkeit

Anpassungsfähigkeit (1) Ehrgeiz (11) Kontroverse (11) Loyalität (15) Druck (9) Professionalität (3) Fairness (1) Temperament (14)

Profil

Trainerstil Demokratisch
Lizenz Kontinentale A
Entschlossenheit 10
Menschenführung 3
Motivation 8
Disziplin 5
Arbeitszufriedenheit
100%
Ermüdung
0%
Rolle Chefscout
Gehalt 64.7K p/W
Vertrag 14.03.2029

Leistung

Verhalten Gut
Trainingseffektivität
34%
Spielerentwicklung
45%
Verletzungsprävention
45%
Taktische Umsetzung
50%

Letzte Ereignisse

Nahm an einer Scouting-Besprechung teil 7T her
Nahm an einer Scouting-Besprechung teil 14T her
Nahm an einer Scouting-Besprechung teil 21T her
Nahm an einer Scouting-Besprechung teil 28T her
Nahm an einer Scouting-Besprechung teil 35T her
Nahm an einer Scouting-Besprechung teil 42T her
Nahm an einer Scouting-Besprechung teil 49T her
Nahm an einer Scouting-Besprechung teil 56T her

Aktuell beobachtet

125
Spieler Verein Status Fähigkeit Vertrauen Beobachtet Zuletzt beobachtet Letzte Stimme
Eduardo Fernandes Benfica Aktiv 101 / 99 58% 1 06.06.2027 -
Patrick Agyemang Derby County Aktiv 115 / 128 40% 3 30.05.2027 -
Yousef Salech Cardiff City Aktiv 119 / 121 40% 4 30.05.2027 -
Patson Daka Leicester City Aktiv 122 / 130 40% 3 29.05.2027 -
Richard Koné Queens Park Rangers Aktiv 124 / 121 40% 1 29.05.2027 -
Martín Tejón Maritimo Aktiv 132 / 135 40% 6 27.05.2027 -
Tyreece Campbell Charlton Athletic Aktiv 117 / 113 40% 3 27.05.2027 -
Jackson Muleka Konyaspor Aktiv 124 / 109 40% 3 24.05.2027 -
Salah Mohsen El Masry Aktiv 106 / 107 40% 1 23.05.2027 -
Joe Gelhardt Hull City Aktiv 125 / 125 40% 7 22.05.2027 -
Wandile Duba ASO Chlef Aktiv 107 / 98 40% 3 20.05.2027 -
John Yeboah Venezia Aktiv 127 / 126 40% 1 19.05.2027 -
Bradley Ihionvien Peterborough United Aktiv 84 / 91 40% 1 19.05.2027 -
Aaron Collins Milton Keynes Dons Aktiv 124 / 128 40% 1 15.05.2027 -
Willem Geubbels Lecce Aktiv 119 / 118 40% 1 14.05.2027 -
Simone Mazzocchi Cosenza Aktiv 110 / 120 40% 1 12.05.2027 -
Tyrese Campbell Sheffield United Aktiv 136 / 131 40% 6 11.05.2027 -
Zé Leite Moreirense Aktiv 124 / 128 40% 3 11.05.2027 -
Marezi Portsmouth Aktiv 119 / 124 40% 2 11.05.2027 -
Ryan Graydon Salford City Aktiv 106 / 96 40% 1 11.05.2027 -
Dale Taylor Blackpool Aktiv 118 / 108 40% 1 09.05.2027 -
Giorgi Kvernadze Frosinone Aktiv 134 / 125 40% 2 07.05.2027 -
Giuseppe Di Serio Spezia Aktiv 129 / 109 40% 1 03.05.2027 -
Younes Ebnoutalib Eintracht Frankfurt Aktiv 140 / 124 40% 1 02.05.2027 -
Rocco Vata Watford Aktiv 116 / 136 40% 2 30.04.2027 -
Tiago Leite Felgueiras Aktiv 100 / 112 40% 1 28.04.2027 -
Figueiredo Alverca Aktiv 135 / 140 40% 3 25.04.2027 -
Mathys Jean Marie Vis Pesaro Aktiv 96 / 104 40% 1 25.04.2027 -
Santiago Pierotti Lecce Aktiv 124 / 141 40% 3 24.04.2027 -
Korede Osundina Casa Pia Aktiv 108 / 131 40% 1 23.04.2027 -
Josh Coburn Millwall Aktiv 124 / 126 40% 5 19.04.2027 -
Mees Rijks Bristol Rovers Aktiv 118 / 120 40% 1 19.04.2027 -
David Romero Parma Aktiv 125 / 133 40% 1 17.04.2027 -
Chico Banza Zamalek Aktiv 112 / 114 40% 2 15.04.2027 -
Mika Lusitânia Lourosa Aktiv 98 / 95 40% 1 15.04.2027 -
Henrique Araújo Casa Pia Aktiv 127 / 116 40% 5 12.04.2027 -
Zian Flemming Ipswich Town Aktiv 130 / 137 40% 7 11.04.2027 -
Callum Lang Preston Aktiv 127 / 110 40% 2 11.04.2027 -
Justo Giani Umraniyespor Aktiv 140 / 122 40% 7 10.04.2027 -
Callum O'Hare Sheffield United Aktiv 138 / 127 40% 6 01.04.2027 -
Ilyas Ansah Hull City Aktiv 124 / 142 40% 5 01.04.2027 -
Sam Greenwood Bristol City Aktiv 123 / 113 40% 4 30.03.2027 -
Yanis Begraoui Estoril Praia Aktiv 123 / 127 40% 4 25.03.2027 -
Sam Nombe Milton Keynes Dons Aktiv 109 / 101 40% 2 21.03.2027 -
Víctor Guzmán Sporting CP Aktiv 96 / 88 40% 1 20.03.2027 -
Dylan Nandín Arouca Aktiv 121 / 101 40% 1 19.03.2027 -
Chukwubuikem Ikwuemesi OH Leuven Aktiv 129 / 115 40% 2 16.03.2027 -
Rui Pedro Felgueiras Aktiv 109 / 115 40% 1 14.03.2027 -
Samuel Kalu Botev Plovdiv Aktiv 117 / 134 40% 2 13.03.2027 -
Aaron Drinan Swindon Town Aktiv 95 / 111 40% 1 12.03.2027 -
Stephen Amankona Aduana Stars Aktiv 96 / 101 40% 1 12.03.2027 -
Stephen Humphrys Bradford City Aktiv 108 / 115 40% 1 10.03.2027 -
Nardin Mulahusejnović Vojvodina Aktiv 134 / 111 40% 1 07.03.2027 -
Mohamed-Ali Cho Hull City Aktiv 132 / 130 40% 2 05.03.2027 -
Erick Dolly Black Aces Aktiv 127 / 108 40% 1 27.02.2027 -
Filip Kubala Banik Ostrava Aktiv 135 / 109 40% 2 26.02.2027 -
Erik Prekop Gornik Zabrze Aktiv 112 / 143 40% 1 25.02.2027 -
Evidence Makgopa Orlando Pirates Aktiv 129 / 131 40% 1 25.02.2027 -
Etiosa Ighodaro Kaizer Chiefs Aktiv 102 / 110 40% 1 24.02.2027 -
Jorge Aguirre Torreense Aktiv 97 / 93 40% 1 13.02.2027 -
Tamble Monteiro Rio Ave Aktiv 126 / 119 40% 5 11.02.2027 -
Giacomo Zecca Torres Aktiv 111 / 114 40% 1 02.02.2027 -
Christian Saydee Wigan Athletic Aktiv 111 / 107 40% 1 02.02.2027 -
Lucas Varaldo Morelia Aktiv 106 / 120 40% 1 26.01.2027 -
David Moreira Sporting CP Aktiv 105 / 105 58% 1 18.01.2027 -
Sampson Dweh Mallorca Abgelehnt 133 / 134 66% 1 01.01.2027 Ablehnen
Manu Pozo Torreense Aktiv 127 / 130 40% 1 01.01.2027 -
Ilias Sebaoui Sint-Truiden Aktiv 139 / 134 40% 1 01.01.2027 -
Sam Bell Bristol City Aktiv 122 / 109 40% 1 31.12.2026 -
Sorriso Famalicao Aktiv 126 / 128 40% 6 30.12.2026 -
Matej Trusa DAC Dunajska Streda Aktiv 130 / 115 40% 3 30.12.2026 -
Aurélien Scheidler Charleroi Aktiv 123 / 110 40% 1 29.12.2026 -
Rafael Navarro Famalicao Aktiv 115 / 134 40% 3 28.12.2026 -
Jason Knight Bristol City Abgelehnt 128 / 135 40% 1 28.12.2026 Mehr Infos nötig
Igor Formiga Mirassol Aktiv 112 / 112 40% 1 25.12.2026 -
Luiz Araújo Flamengo Aktiv 135 / 111 40% 1 25.12.2026 -
João Carvalho Estoril Praia Aktiv 126 / 143 40% 1 20.12.2026 -
Alejandro Piedrahita Deportivo Pereira Aktiv 116 / 134 40% 2 19.12.2026 -
Duk Atlas Aktiv 111 / 107 40% 3 19.12.2026 -
Miguel Tavares Vizela Aktiv 117 / 101 40% 1 17.12.2026 -
Welington Southampton Abgelehnt 132 / 128 40% 1 14.12.2026 Mehr Infos nötig
Lucas Fernandes Bolton Wanderers Aktiv 123 / 112 40% 1 13.12.2026 -
Martín Ojeda Orlando City Aktiv 146 / 117 40% 4 12.12.2026 -
Armstrong Oko-Flex Levski Aktiv 113 / 135 40% 1 11.12.2026 -
Julian Herrera Cortulua Aktiv 128 / 130 40% 4 06.12.2026 -
Bienvenue Kanakimana Zbrojovka Brno Aktiv 108 / 105 40% 1 03.12.2026 -
Luka Jović CFR Cluj Aktiv 126 / 127 40% 2 30.11.2026 -
Talles Magno New York City Aktiv 113 / 112 40% 1 25.11.2026 -
Tatsuhiro Sakamoto Coventry City Aktiv 125 / 125 40% 1 22.11.2026 -
Andre Brooks Sheffield United Abgelehnt 133 / 136 40% 1 22.11.2026 Mehr Infos nötig
Lorougnon Gohi Académico de Viseu Aktiv 107 / 116 40% 1 20.11.2026 -
Rubén Duarte Pumas UNAM Aktiv 136 / 139 40% 1 20.11.2026 -
Assad Al Hamlawi Universitatea Craiova Aktiv 123 / 117 40% 1 18.11.2026 -
Alexander Díaz Deportivo Riestra Aktiv 131 / 126 40% 2 13.11.2026 -
Juninho Pumas UNAM Aktiv 139 / 132 40% 4 12.11.2026 -
Kevin Velasco Puebla Aktiv 128 / 127 40% 1 08.11.2026 -
Ammar Ramadan DAC Dunajska Streda Aktiv 113 / 106 40% 1 26.10.2026 -
Petar Musa FC Dallas Aktiv 143 / 123 40% 1 25.10.2026 -
Morgan Guilavogui Real Salt Lake Aktiv 130 / 115 40% 3 23.10.2026 -
Antony Alonso Deportivo Riestra Aktiv 133 / 119 40% 1 18.10.2026 -
Ayoub Jabbari FC Cincinnati Aktiv 113 / 100 40% 1 15.10.2026 -
Wessam Abou Ali Columbus Crew Aktiv 125 / 121 40% 1 13.10.2026 -
Jens Petter Hauge Bodo/Glimt Aktiv 128 / 117 40% 1 13.10.2026 -
João Klauss LA Galaxy Aktiv 116 / 130 40% 1 11.10.2026 -
Santiago Sala Güemes Aktiv 102 / 103 40% 1 09.10.2026 -
Brian Orosco Godoy Cruz Aktiv 107 / 110 40% 1 08.10.2026 -
Santiago Rodríguez Gimnasia y Esgrima Aktiv 114 / 137 40% 1 07.10.2026 -
Jesus Ferreira Seattle Sounders Aktiv 117 / 133 40% 1 04.10.2026 -
Alexander Aravena Portland Timbers Aktiv 118 / 142 40% 1 03.10.2026 -
Josh Sargent Toronto FC Aktiv 130 / 110 40% 1 02.10.2026 -
Alejo Cruz Juventud Aktiv 120 / 112 40% 1 30.09.2026 -
Joaquín Zeballos Wanderers Aktiv 102 / 108 40% 1 26.09.2026 -
Lewis Morgan Toronto FC Aktiv 138 / 134 40% 1 21.09.2026 -
Agustín Anello Philadelphia Union Aktiv 139 / 132 40% 1 20.09.2026 -
Alan Lescano Argentinos Juniors Aktiv 139 / 138 40% 1 20.09.2026 -
Germán Berterame Inter Miami CF Aktiv 129 / 122 40% 1 18.09.2026 -
Renzo Reynaga Patronato Aktiv 125 / 94 40% 1 17.09.2026 -
Cheikh Sabaly Vancouver Whitecaps Aktiv 107 / 120 40% 1 14.09.2026 -
Eddie Nketiah Crystal Palace Aktiv 143 / 135 40% 1 14.09.2026 -
Favio Cabral Mitre Aktiv 115 / 112 40% 1 13.09.2026 -
Marcelo Allende Mamelodi Sundowns Aktiv 136 / 127 40% 1 08.09.2026 -
Duncan McGuire Houston Dynamo Aktiv 132 / 128 40% 1 26.08.2026 -
Gonzalo Carneiro Sparta Prague Aktiv 121 / 125 40% 1 26.08.2026 -
Gabriel Silva Braga Aktiv 119 / 132 40% 1 01.08.2026 -
Héctor Hernández Gil Vicente Aktiv 116 / 126 40% 1 01.08.2026 -